Time;durP1;ratioP1;P1;durP2;ratioP2;P2;SDS_P1;SDS_P2;PMS_P1;PMS_P2;Temp;Humidity;BMP_temperature;BMP_pressure;BME280_temperature;BME280_humidity;BME280_pressure;Samples;Min_cycle;Max_cycle;Signal;HPM_P1;HPM_P2
2022/07/20 00:01:19;;;;;;;7.40;3.20;;;;;;;18.96;59.90;98842.31;106365;1274;138638;-85
2022/07/20 00:04:16;;;;;;;8.40;3.60;;;;;;;18.91;59.84;98840.21;106427;1274;25394;-83
2022/07/20 00:06:54;;;;;;;7.00;3.00;;;;;;;18.87;59.94;98836.66;106662;1274;137284;-83
2022/07/20 00:12:39;;;;;;;7.40;3.40;;;;;;;18.78;60.14;98829.26;107006;1273;137805;-84
2022/07/20 00:15:57;;;;;;;4.80;3.30;;;;;;;18.74;59.94;98829.23;106388;1277;25325;-84
2022/07/20 00:18:23;;;;;;;6.90;4.50;;;;;;;18.70;59.89;98830.38;106527;1280;137374;-85
2022/07/20 00:20:51;;;;;;;4.10;2.90;;;;;;;18.66;59.82;98824.41;106255;1278;24233;-83
2022/07/20 00:23:39;;;;;;;7.10;3.10;;;;;;;18.64;59.90;98825.09;106682;1280;22782;-83
2022/07/20 00:26:26;;;;;;;6.10;3.10;;;;;;;18.62;60.38;98825.16;106508;1277;22709;-84
2022/07/20 00:29:02;;;;;;;6.30;3.20;;;;;;;18.61;60.63;98824.17;106527;1277;29687;-84
2022/07/20 00:31:29;;;;;;;7.20;3.30;;;;;;;18.61;60.84;98822.85;106187;1278;137893;-84
2022/07/20 00:33:55;;;;;;;7.40;3.00;;;;;;;18.61;60.58;98821.91;106514;1277;24186;-85
2022/07/20 00:36:23;;;;;;;5.50;3.40;;;;;;;18.61;60.39;98821.52;106460;1277;137531;-84
2022/07/20 00:38:49;;;;;;;6.80;3.50;;;;;;;18.60;60.59;98820.70;106622;1277;23461;-84
2022/07/20 00:41:18;;;;;;;6.30;3.00;;;;;;;18.59;60.61;98824.06;106898;1277;22570;-84
2022/07/20 00:44:00;;;;;;;8.00;3.20;;;;;;;18.58;60.58;98820.33;106817;1277;137150;-85
2022/07/20 00:46:30;;;;;;;5.60;3.10;;;;;;;18.56;60.48;98820.13;106941;1275;22552;-83
2022/07/20 00:49:17;;;;;;;4.70;3.30;;;;;;;18.55;60.55;98823.07;106383;1274;137216;-83
2022/07/20 00:51:48;;;;;;;6.20;3.10;;;;;;;18.51;60.53;98821.11;106837;1273;22540;-83
2022/07/20 00:54:18;;;;;;;5.30;2.90;;;;;;;18.49;60.53;98823.39;106987;1274;137284;-84
2022/07/20 00:56:44;;;;;;;4.20;3.10;;;;;;;18.47;60.50;98822.90;107120;1274;22566;-83
2022/07/20 00:59:15;;;;;;;4.00;3.00;;;;;;;18.45;60.51;98820.43;106822;1274;22566;-84
2022/07/20 01:02:02;;;;;;;7.10;3.30;;;;;;;18.43;60.56;98824.65;106463;1275;137340;-83
2022/07/20 01:04:57;;;;;;;8.20;3.00;;;;;;;18.38;60.68;98823.69;106873;1274;25357;-83
2022/07/20 01:07:24;;;;;;;9.10;3.30;;;;;;;18.34;60.70;98827.25;106806;1274;137115;-83
2022/07/20 01:10:25;;;;;;;5.80;3.70;;;;;;;18.31;60.74;98825.06;107128;1274;24517;-83
2022/07/20 01:12:54;;;;;;;5.50;3.60;;;;;;;18.28;60.78;98823.98;106816;1274;137520;-83
2022/07/20 01:15:27;;;;;;;5.60;3.50;;;;;;;18.24;60.86;98819.00;106670;1276;22670;-84
2022/07/20 01:17:53;;;;;;;6.40;3.50;;;;;;;18.20;61.13;98818.69;106460;1276;138364;-84
2022/07/20 01:20:19;;;;;;;4.50;3.10;;;;;;;18.15;61.10;98818.79;106628;1277;22736;-84
2022/07/20 01:22:50;;;;;;;6.10;3.40;;;;;;;18.12;61.03;98819.25;106561;1277;23524;-84
2022/07/20 01:25:16;;;;;;;5.70;3.40;;;;;;;18.11;61.69;98817.58;106652;1277;137756;-84
2022/07/20 01:27:57;;;;;;;13.30;3.80;;;;;;;18.09;62.06;98820.86;106995;1277;24383;-84
2022/07/20 01:30:24;;;;;;;5.90;3.70;;;;;;;18.09;62.32;98817.61;106800;1274;137751;-84
2022/07/20 01:32:56;;;;;;;7.40;3.80;;;;;;;18.08;62.33;98819.70;106342;1274;25355;-84
2022/07/20 01:36:02;;;;;;;6.60;3.30;;;;;;;18.02;62.62;98818.92;106779;1274;22865;-83
2022/07/20 01:38:48;;;;;;;8.20;3.60;;;;;;;17.90;63.05;98824.44;106760;1276;25420;-83
2022/07/20 01:41:16;;;;;;;6.10;3.20;;;;;;;17.74;63.47;98830.50;106403;1277;22593;-83
2022/07/20 01:43:45;;;;;;;5.30;3.20;;;;;;;17.55;63.83;98831.86;106808;1277;137099;-83
2022/07/20 01:46:12;;;;;;;6.20;3.40;;;;;;;17.43;64.58;98830.20;106556;1278;25402;-83
2022/07/20 01:48:47;;;;;;;4.80;2.90;;;;;;;17.37;64.91;98828.13;106582;1277;137537;-83
2022/07/20 01:51:14;;;;;;;5.90;3.60;;;;;;;17.35;64.66;98834.08;106377;1277;22590;-83
2022/07/20 01:53:47;;;;;;;7.10;3.40;;;;;;;17.35;64.71;98835.91;106351;1277;22782;-83
2022/07/20 01:56:17;;;;;;;8.00;3.90;;;;;;;17.35;64.70;98831.49;106392;1277;22844;-83
2022/07/20 01:58:44;;;;;;;5.50;3.50;;;;;;;17.36;64.69;98829.39;106248;1277;25480;-83
2022/07/20 02:01:11;;;;;;;8.60;4.30;;;;;;;17.36;64.53;98826.65;106352;1277;137562;-83
2022/07/20 02:03:59;;;;;;;;;;;;;;;17.35;64.41;98828.30;106716;1277;25412;-84
2022/07/20 02:06:40;;;;;;;6.40;3.80;;;;;;;17.33;64.34;98826.77;106332;1277;124052;-83
2022/07/20 02:09:11;;;;;;;6.10;3.80;;;;;;;17.34;64.11;98825.50;106733;1277;22607;-84
2022/07/20 02:11:38;;;;;;;6.40;3.50;;;;;;;17.36;63.99;98828.79;106556;1277;22670;-84
2022/07/20 02:14:11;;;;;;;7.20;3.60;;;;;;;17.38;63.97;98828.12;106620;1277;137014;-84
2022/07/20 02:17:11;;;;;;;10.70;4.10;;;;;;;17.40;63.84;98830.87;106676;1277;22559;-84
2022/07/20 02:19:49;;;;;;;7.40;3.70;;;;;;;17.41;64.09;98826.90;106433;1276;137425;-84
2022/07/20 02:22:17;;;;;;;5.70;3.60;;;;;;;17.40;64.57;98827.73;107024;1277;23177;-83
2022/07/20 02:24:44;;;;;;;7.10;3.80;;;;;;;17.37;64.85;98829.66;106314;1277;137647;-85
2022/07/20 02:27:19;;;;;;;4.70;3.70;;;;;;;17.37;64.78;98829.50;106595;1277;22643;-84
2022/07/20 02:29:50;;;;;;;5.90;3.50;;;;;;;17.38;64.48;98829.00;106726;1277;137387;-83
2022/07/20 02:32:20;;;;;;;6.00;3.50;;;;;;;17.39;64.40;98827.63;106573;1276;25341;-83
2022/07/20 02:34:52;;;;;;;4.60;3.30;;;;;;;17.41;64.22;98823.71;106407;1276;22568;-83
2022/07/20 02:37:45;;;;;;;4.60;3.70;;;;;;;17.43;63.90;98824.80;106467;1276;137327;-83
2022/07/20 02:40:12;;;;;;;4.40;3.30;;;;;;;17.43;63.87;98821.21;106618;1277;23671;-83
2022/07/20 02:42:41;;;;;;;8.30;3.40;;;;;;;17.43;64.13;98821.33;106957;1277;137501;-83
2022/07/20 02:45:13;;;;;;;5.30;3.70;;;;;;;17.43;64.16;98820.40;106648;1277;22540;-84
2022/07/20 02:47:46;;;;;;;6.10;3.50;;;;;;;17.39;64.06;98820.46;106675;1276;22564;-86
2022/07/20 02:50:38;;;;;;;8.50;3.80;;;;;;;17.37;64.10;98818.77;106901;1277;23380;-83
2022/07/20 02:53:08;;;;;;;5.10;3.20;;;;;;;17.36;64.20;98820.37;106550;1274;22629;-83
2022/07/20 02:55:40;;;;;;;7.50;3.70;;;;;;;17.36;64.17;98823.77;106517;1275;138121;-83
2022/07/20 02:58:23;;;;;;;5.70;3.60;;;;;;;17.38;63.95;98820.63;106767;1276;22613;-83
2022/07/20 03:00:50;;;;;;;6.70;3.60;;;;;;;17.40;64.10;98819.25;106618;1278;137849;-83
2022/07/20 03:03:30;;;;;;;5.80;3.80;;;;;;;17.43;64.01;98821.16;106508;1277;24274;-86
2022/07/20 03:06:00;;;;;;;8.20;3.60;;;;;;;17.45;63.94;98824.75;106433;1278;137317;-83
2022/07/20 03:08:26;;;;;;;7.40;3.30;;;;;;;17.45;64.15;98822.48;107279;1277;22776;-83
2022/07/20 03:10:53;;;;;;;5.40;3.40;;;;;;;17.43;63.88;98823.64;106928;1277;22562;-83
2022/07/20 03:13:23;;;;;;;8.60;3.50;;;;;;;17.40;64.06;98827.45;106817;1277;137227;-83
2022/07/20 03:15:49;;;;;;;6.10;3.40;;;;;;;17.35;64.19;98827.36;106636;1277;22895;-83
2022/07/20 03:18:38;;;;;;;4.60;3.00;;;;;;;17.29;64.56;98837.40;106526;1277;137362;-83
2022/07/20 03:21:05;;;;;;;;;;;;;;;17.22;65.12;98845.13;106424;1274;24373;-83
2022/07/20 03:23:34;;;;;;;5.20;3.20;;;;;;;17.14;65.36;98844.81;107061;1274;24275;-83
2022/07/20 03:26:03;;;;;;;5.00;3.30;;;;;;;17.11;65.67;98838.88;106613;1274;137833;-84
2022/07/20 03:28:30;;;;;;;7.30;3.20;;;;;;;17.09;66.00;98842.13;106697;1274;23919;-83
2022/07/20 03:30:59;;;;;;;7.30;3.40;;;;;;;17.07;66.16;98847.30;106614;1275;137780;-83
2022/07/20 03:33:28;;;;;;;6.00;3.40;;;;;;;17.06;65.90;98840.77;107181;1277;22545;-84
2022/07/20 03:35:54;;;;;;;5.90;3.50;;;;;;;17.06;65.83;98843.73;106689;1277;137347;-84
2022/07/20 03:38:26;;;;;;;8.00;3.20;;;;;;;17.07;65.90;98842.35;106881;1277;22569;-84
2022/07/20 03:41:00;;;;;;;7.00;3.10;;;;;;;17.09;65.65;98846.14;106620;1277;22560;-84
2022/07/20 03:43:32;;;;;;;7.00;3.40;;;;;;;17.10;65.31;98845.59;106857;1277;137692;-84
2022/07/20 03:45:58;;;;;;;5.80;3.30;;;;;;;17.09;65.23;98848.79;106548;1277;25493;-84
2022/07/20 03:48:44;;;;;;;5.20;3.30;;;;;;;17.03;65.31;98848.63;106617;1278;137667;-84
2022/07/20 03:51:11;;;;;;;5.40;3.20;;;;;;;16.98;65.66;98851.45;106779;1277;22701;-84
2022/07/20 03:53:37;;;;;;;5.30;3.70;;;;;;;16.96;65.91;98852.66;106731;1277;24218;-84
2022/07/20 03:56:04;;;;;;;6.20;3.20;;;;;;;16.93;66.10;98856.96;106212;1278;136885;-83
2022/07/20 03:58:30;;;;;;;8.90;3.40;;;;;;;16.91;66.60;98859.92;106448;1277;22710;-83
2022/07/20 04:00:56;;;;;;;6.50;3.40;;;;;;;16.94;66.69;98863.62;106705;1277;137396;-84
2022/07/20 04:03:23;;;;;;;5.30;3.70;;;;;;;16.97;66.72;98861.95;106425;1278;22631;-84
2022/07/20 04:05:50;;;;;;;6.00;3.20;;;;;;;16.96;66.76;98861.74;106480;1276;22670;-83
2022/07/20 04:08:18;;;;;;;6.10;3.60;;;;;;;16.93;66.56;98865.87;106589;1277;23341;-84
2022/07/20 04:10:44;;;;;;;7.20;3.60;;;;;;;16.96;66.92;98866.20;107165;1276;23013;-84
2022/07/20 04:13:11;;;;;;;5.40;3.20;;;;;;;17.00;66.96;98867.46;106493;1277;138333;-83
2022/07/20 04:15:41;;;;;;;6.20;3.50;;;;;;;17.07;67.27;98867.98;106498;1277;22551;-84
2022/07/20 04:18:07;;;;;;;6.90;3.70;;;;;;;17.14;66.61;98867.10;106349;1278;137735;-84
2022/07/20 04:20:44;;;;;;;5.70;3.50;;;;;;;17.21;66.31;98867.09;106762;1277;25598;-84
2022/07/20 04:23:11;;;;;;;6.20;3.40;;;;;;;17.27;66.13;98868.88;106379;1277;22577;-83
2022/07/20 04:25:59;;;;;;;8.10;3.70;;;;;;;17.33;65.92;98869.33;107108;1277;137156;-84
2022/07/20 04:29:08;;;;;;;11.30;5.00;;;;;;;17.40;66.13;98875.47;106674;1277;22759;-84
2022/07/20 04:31:40;;;;;;;11.00;4.30;;;;;;;17.46;65.94;98878.10;106562;1277;137351;-84
2022/07/20 04:34:08;;;;;;;6.70;3.50;;;;;;;17.50;66.31;98881.02;106486;1277;25289;-84
2022/07/20 04:36:35;;;;;;;8.90;3.40;;;;;;;17.50;66.24;98879.02;106629;1277;137408;-83
2022/07/20 04:39:02;;;;;;;6.40;4.10;;;;;;;17.45;66.04;98877.71;106541;1277;24288;-84
2022/07/20 04:41:31;;;;;;;6.20;4.70;;;;;;;17.40;66.38;98878.62;106980;1277;22599;-84
2022/07/20 04:43:58;;;;;;;8.50;4.30;;;;;;;17.33;66.58;98883.14;106550;1278;137871;-83
2022/07/20 04:46:28;;;;;;;6.40;4.20;;;;;;;17.31;66.94;98881.12;106771;1277;24279;-83
2022/07/20 04:48:55;;;;;;;9.80;4.00;;;;;;;17.34;66.73;98883.80;106396;1277;137633;-83
2022/07/20 04:51:22;;;;;;;8.30;3.50;;;;;;;17.40;66.43;98886.15;106716;1277;22718;-83
2022/07/20 04:53:51;;;;;;;10.10;4.40;;;;;;;17.47;66.32;98881.73;106575;1277;138001;-83
2022/07/20 04:56:18;;;;;;;8.50;4.30;;;;;;;17.57;66.14;98885.55;106696;1277;22573;-83
2022/07/20 04:58:52;;;;;;;8.50;4.10;;;;;;;17.66;66.07;98886.52;106682;1277;22606;-83
2022/07/20 05:01:20;;;;;;;8.50;3.70;;;;;;;17.75;65.86;98889.07;106687;1276;137088;-83
2022/07/20 05:04:01;;;;;;;9.90;4.10;;;;;;;17.82;66.20;98886.95;106698;1276;25372;-83
2022/07/20 05:06:48;;;;;;;10.20;4.30;;;;;;;17.91;66.06;98887.27;106442;1277;137945;-83
2022/07/20 05:09:15;;;;;;;20.70;5.70;;;;;;;17.98;66.40;98889.65;106567;1277;22547;-83
2022/07/20 05:11:42;;;;;;;11.70;5.10;;;;;;;18.04;66.39;98889.14;106265;1278;23117;-83
2022/07/20 05:14:11;;;;;;;13.40;5.00;;;;;;;18.10;66.62;98890.59;106483;1277;138604;-83
2022/07/20 05:16:54;;;;;;;15.90;4.80;;;;;;;18.16;66.69;98888.23;106381;1277;22553;-84
2022/07/20 05:19:45;;;;;;;13.40;4.90;;;;;;;18.26;66.90;98890.61;106141;1277;137674;-83
2022/07/20 05:22:26;;;;;;;15.00;5.20;;;;;;;18.34;66.92;98884.44;106497;1276;24242;-83
2022/07/20 05:24:56;;;;;;;12.70;5.10;;;;;;;18.42;66.95;98886.80;106162;1277;137654;-83
2022/07/20 05:27:23;;;;;;;11.70;4.90;;;;;;;18.49;66.91;98888.25;106627;1277;25560;-83
2022/07/20 05:29:50;;;;;;;11.10;5.10;;;;;;;18.55;66.81;98887.77;106609;1276;22531;-83
2022/07/20 05:32:22;;;;;;;11.70;4.80;;;;;;;18.60;66.96;98889.17;106307;1277;137191;-83
2022/07/20 05:35:02;;;;;;;10.30;4.80;;;;;;;18.66;67.18;98890.77;106315;1276;22837;-82
2022/07/20 05:37:29;;;;;;;12.30;4.90;;;;;;;18.72;67.18;98893.33;106430;1277;137279;-82
2022/07/20 05:40:17;;;;;;;14.20;5.20;;;;;;;18.77;67.07;98890.84;106315;1276;22605;-85
2022/07/20 05:42:45;;;;;;;13.90;5.90;;;;;;;18.85;66.93;98895.23;106790;1276;138050;-83
2022/07/20 05:45:12;;;;;;;16.60;5.60;;;;;;;18.92;67.26;98894.85;106506;1277;22566;-85
2022/07/20 05:47:38;;;;;;;11.40;4.70;;;;;;;19.00;67.30;98892.34;106644;1277;25463;-83
2022/07/20 05:50:05;;;;;;;10.50;5.10;;;;;;;19.10;66.98;98892.70;106456;1277;137190;-83
2022/07/20 05:52:32;;;;;;;25.40;6.20;;;;;;;19.22;66.59;98892.05;106819;1275;22755;-83
2022/07/20 05:55:34;;;;;;;10.20;6.00;;;;;;;19.32;66.51;98893.74;106353;1276;137835;-85
2022/07/20 05:58:02;;;;;;;13.20;5.30;;;;;;;19.45;66.48;98899.36;106463;1276;22558;-83
2022/07/20 06:00:32;;;;;;;15.40;5.50;;;;;;;19.56;66.30;98902.98;106197;1276;137963;-84
2022/07/20 06:02:59;;;;;;;14.70;5.40;;;;;;;19.67;66.29;98903.21;106510;1276;22570;-84
2022/07/20 06:05:26;;;;;;;15.10;6.10;;;;;;;19.78;66.24;98900.95;106746;1277;25336;-79
2022/07/20 06:07:55;;;;;;;24.80;6.50;;;;;;;19.89;66.13;98904.85;106222;1276;137914;-79
2022/07/20 06:10:23;;;;;;;23.50;6.20;;;;;;;20.02;66.06;98908.16;106751;1277;22560;-81
2022/07/20 06:12:50;;;;;;;;;;;;;;;20.15;65.95;98913.19;106867;1277;137668;-80
2022/07/20 06:15:17;;;;;;;31.90;6.60;;;;;;;20.27;65.52;98916.80;106637;1276;24185;-81
2022/07/20 06:17:44;;;;;;;28.70;6.30;;;;;;;20.38;65.15;98917.58;106931;1276;22769;-81
2022/07/20 06:20:15;;;;;;;21.10;6.50;;;;;;;20.49;65.07;98920.41;106436;1276;137005;-85
2022/07/20 06:22:43;;;;;;;18.90;6.60;;;;;;;20.61;64.79;98918.59;106557;1277;25268;-80
2022/07/20 06:25:12;;;;;;;15.90;7.00;;;;;;;20.71;64.60;98918.52;106485;1276;139311;-81
2022/07/20 06:27:38;;;;;;;17.50;6.40;;;;;;;20.83;63.98;98921.93;106614;1277;22694;-81
2022/07/20 06:30:08;;;;;;;17.90;7.30;;;;;;;20.95;63.59;98923.94;106489;1277;137492;-82
2022/07/20 06:32:36;;;;;;;15.30;5.90;;;;;;;21.07;63.07;98922.58;106771;1277;22715;-81
2022/07/20 06:35:03;;;;;;;11.30;6.00;;;;;;;21.20;62.47;98922.90;106537;1277;22605;-82
2022/07/20 06:37:44;;;;;;;15.60;6.40;;;;;;;21.32;62.00;98917.59;107091;1277;137288;-82
2022/07/20 06:40:11;;;;;;;16.40;6.70;;;;;;;21.44;61.79;98918.23;106654;1277;22702;-81
2022/07/20 06:42:37;;;;;;;11.50;6.50;;;;;;;21.54;61.48;98922.27;106881;1277;137553;-81
2022/07/20 06:45:04;;;;;;;19.70;6.80;;;;;;;21.64;61.29;98920.91;106312;1277;24415;-80
2022/07/20 06:47:34;;;;;;;17.90;6.40;;;;;;;21.74;61.08;98923.10;106406;1277;25460;-82
2022/07/20 06:50:15;;;;;;;16.50;6.40;;;;;;;21.87;60.86;98925.90;106278;1277;137073;-83
2022/07/20 06:52:42;;;;;;;16.30;6.60;;;;;;;21.98;60.61;98919.86;106247;1276;25376;-83
2022/07/20 06:55:09;;;;;;;13.80;6.20;;;;;;;22.07;59.99;98919.54;106562;1277;137415;-81
2022/07/20 06:57:37;;;;;;;18.90;7.00;;;;;;;22.19;59.95;98923.34;106397;1277;23344;-84
2022/07/20 07:00:07;;;;;;;23.50;6.50;;;;;;;22.31;59.67;98918.50;106379;1277;138328;-82
2022/07/20 07:02:34;;;;;;;15.20;6.10;;;;;;;22.43;59.14;98914.23;106809;1277;22609;-81
2022/07/20 07:05:00;;;;;;;14.70;5.90;;;;;;;22.56;58.89;98914.68;107336;1276;24327;-82
2022/07/20 07:07:27;;;;;;;14.90;5.80;;;;;;;22.66;58.67;98912.77;106961;1274;139171;-84
2022/07/20 07:09:53;;;;;;;14.30;6.50;;;;;;;22.78;58.12;98914.70;107031;1274;22572;-83
2022/07/20 07:12:20;;;;;;;12.90;5.10;;;;;;;22.90;57.35;98914.45;107022;1274;137445;-84
2022/07/20 07:14:48;;;;;;;9.10;4.40;;;;;;;23.02;56.62;98913.57;107188;1276;25385;-83
2022/07/20 07:17:18;;;;;;;9.40;3.80;;;;;;;23.15;55.57;98914.60;107278;1277;30158;-84
2022/07/20 07:19:46;;;;;;;10.50;3.80;;;;;;;23.26;54.72;98907.35;107005;1277;137236;-84
2022/07/20 07:22:14;;;;;;;;;;;;;;;23.39;54.15;98907.34;106843;1277;25452;-82
2022/07/20 07:24:40;;;;;;;10.10;4.10;;;;;;;23.51;53.88;98908.41;107042;1275;123613;-82
2022/07/20 07:27:07;;;;;;;10.80;4.30;;;;;;;23.63;53.41;98907.88;107116;1276;23064;-83
2022/07/20 07:29:35;;;;;;;13.20;4.70;;;;;;;23.75;53.30;98911.98;106872;1277;22592;-84
2022/07/20 07:32:01;;;;;;;8.20;4.30;;;;;;;23.87;53.33;98909.04;106716;1277;137487;-81
2022/07/20 07:34:29;;;;;;;10.50;4.30;;;;;;;23.99;53.22;98907.65;107349;1277;22607;-82
2022/07/20 07:36:55;;;;;;;9.00;4.10;;;;;;;24.13;53.07;98908.39;106669;1277;137594;-83
2022/07/20 07:39:23;;;;;;;13.10;4.70;;;;;;;24.28;53.27;98914.19;106852;1274;24459;-81
2022/07/20 07:41:54;;;;;;;9.60;4.30;;;;;;;24.44;53.05;98911.83;107469;1276;137352;-85
2022/07/20 07:44:21;;;;;;;9.10;4.20;;;;;;;24.59;52.11;98908.15;107040;1276;22655;-85
2022/07/20 07:46:49;;;;;;;7.40;3.80;;;;;;;24.73;50.90;98911.36;106805;1276;22570;-81
2022/07/20 07:49:16;;;;;;;7.00;3.80;;;;;;;24.87;49.69;98911.53;107019;1277;137180;-81
2022/07/20 07:51:44;;;;;;;10.10;3.80;;;;;;;25.00;49.24;98919.26;106621;1277;1015247;-81
2022/07/20 07:54:14;;;;;;;13.60;5.00;;;;;;;25.14;48.89;98913.65;106768;1277;137945;-82
2022/07/20 07:56:41;;;;;;;12.10;4.20;;;;;;;25.29;48.58;98916.73;107416;1277;22552;-82
2022/07/20 07:59:08;;;;;;;17.40;5.10;;;;;;;25.45;48.38;98917.81;106940;1277;25404;-82
2022/07/20 08:01:34;;;;;;;18.30;5.10;;;;;;;25.60;47.87;98914.95;107248;1277;137649;-81
2022/07/20 08:04:02;;;;;;;16.20;4.60;;;;;;;25.75;47.21;98915.20;107465;1276;22555;-82
2022/07/20 08:06:29;;;;;;;16.50;4.40;;;;;;;25.92;47.07;98910.08;106915;1277;137423;-81
2022/07/20 08:08:57;;;;;;;23.40;5.00;;;;;;;26.08;47.16;98914.26;106870;1277;22730;-83
2022/07/20 08:11:24;;;;;;;20.20;5.90;;;;;;;26.25;47.03;98912.05;107137;1277;22599;-82
2022/07/20 08:13:53;;;;;;;18.30;4.60;;;;;;;26.40;46.63;98911.50;106883;1277;137287;-81
2022/07/20 08:16:19;;;;;;;;;;;;;;;26.56;46.44;98909.66;106931;1276;22526;-82
2022/07/20 08:18:45;;;;;;;15.90;4.60;;;;;;;26.72;46.25;98907.95;106627;1277;123713;-82
2022/07/20 08:21:12;;;;;;;13.30;4.40;;;;;;;26.89;46.24;98905.79;106730;1277;23434;-80
2022/07/20 08:27:08;;;;;;;15.10;4.30;;;;;;;27.27;44.83;98900.79;106271;1277;23860;-80
2022/07/20 08:29:49;;;;;;;15.50;4.80;;;;;;;27.45;44.57;98896.78;106271;1277;25420;-80
2022/07/20 08:32:15;;;;;;;15.80;5.00;;;;;;;27.61;44.28;98897.71;106153;1277;137308;-79
2022/07/20 08:34:42;;;;;;;16.40;4.60;;;;;;;27.77;43.65;98897.45;106147;1276;22749;-82
2022/07/20 08:37:08;;;;;;;17.70;4.80;;;;;;;27.91;42.56;98896.16;106654;1276;137305;-82
2022/07/20 08:39:35;;;;;;;14.90;4.40;;;;;;;28.05;42.55;98899.19;106252;1278;22544;-81
2022/07/20 08:42:01;;;;;;;16.80;4.70;;;;;;;28.18;41.80;98897.04;106315;1277;137696;-80
2022/07/20 08:44:28;;;;;;;12.40;4.80;;;;;;;28.31;41.37;98891.98;106114;1277;24444;-79
2022/07/20 08:46:57;;;;;;;17.50;4.70;;;;;;;28.44;41.17;98889.20;106507;1277;22576;-80
2022/07/20 08:49:24;;;;;;;10.80;4.50;;;;;;;28.59;40.98;98893.42;106180;1276;137422;-80
2022/07/20 08:51:50;;;;;;;14.90;4.30;;;;;;;28.75;41.61;98895.67;106660;1276;25388;-81
2022/07/20 08:54:18;;;;;;;11.70;4.10;;;;;;;28.93;40.79;98895.14;106832;1277;25339;-81
2022/07/20 08:57:07;;;;;;;10.80;4.60;;;;;;;29.10;39.93;98894.08;106127;1276;27137;-81
2022/07/20 08:59:34;;;;;;;11.40;4.50;;;;;;;29.25;39.37;98896.92;105975;1277;30534;-81
2022/07/20 09:02:03;;;;;;;16.40;4.20;;;;;;;29.40;38.94;98898.95;106077;1277;137617;-81
2022/07/20 09:04:58;;;;;;;10.30;4.00;;;;;;;29.56;38.36;98899.84;106130;1277;24327;-81
2022/07/20 09:07:40;;;;;;;12.70;4.60;;;;;;;29.74;38.56;98898.70;105942;1276;137643;-82
2022/07/20 09:10:10;;;;;;;8.30;4.50;;;;;;;29.91;38.26;98897.36;106357;1277;25489;-81
2022/07/20 09:12:51;;;;;;;11.40;4.10;;;;;;;30.05;37.70;98896.59;106185;1277;137540;-83
2022/07/20 09:15:27;;;;;;;15.50;5.60;;;;;;;30.18;36.99;98898.39;106222;1277;23057;-81
2022/07/20 09:18:07;;;;;;;8.50;3.60;;;;;;;30.28;36.27;98895.58;106525;1276;22596;-82
2022/07/20 09:20:34;;;;;;;11.10;4.00;;;;;;;30.40;35.68;98890.73;106244;1277;25304;-82
2022/07/20 09:23:17;;;;;;;9.70;3.50;;;;;;;30.51;35.40;98892.58;106348;1277;24374;-81
2022/07/20 09:25:53;;;;;;;10.90;4.10;;;;;;;30.68;35.55;98893.19;106212;1277;137145;-82
2022/07/20 09:28:20;;;;;;;7.40;3.90;;;;;;;30.82;34.20;98889.46;106572;1277;24309;-82
2022/07/20 09:30:55;;;;;;;9.70;3.90;;;;;;;30.86;33.96;98891.16;106199;1277;137581;-84
2022/07/20 09:33:32;;;;;;;11.00;3.60;;;;;;;31.00;34.19;98890.98;106342;1277;23958;-81
2022/07/20 09:36:03;;;;;;;6.20;3.30;;;;;;;31.16;34.14;98883.00;106024;1277;137448;-81
2022/07/20 09:38:39;;;;;;;7.40;3.40;;;;;;;31.27;33.25;98880.23;106248;1277;23391;-80
2022/07/20 09:41:22;;;;;;;8.60;3.90;;;;;;;31.32;31.13;98881.05;106740;1276;24235;-82
2022/07/20 09:43:48;;;;;;;8.70;3.30;;;;;;;31.38;30.71;98878.58;106010;1278;137420;-82
2022/07/20 09:46:20;;;;;;;6.50;3.10;;;;;;;31.48;31.72;98877.81;106686;1276;22542;-81
2022/07/20 09:48:52;;;;;;;8.20;3.30;;;;;;;31.64;31.08;98871.27;106188;1276;137182;-81
2022/07/20 09:51:27;;;;;;;10.90;3.90;;;;;;;31.84;31.25;98872.23;106163;1277;22558;-83
2022/07/20 09:53:56;;;;;;;7.60;3.60;;;;;;;32.03;32.48;98873.59;106605;1277;25368;-83
2022/07/20 09:56:24;;;;;;;5.90;3.70;;;;;;;32.16;31.08;98871.63;106219;1277;24367;-83
2022/07/20 09:58:53;;;;;;;6.60;3.40;;;;;;;32.29;30.95;98872.05;106259;1277;22600;-83
2022/07/20 10:01:24;;;;;;;8.90;3.30;;;;;;;32.40;30.97;98873.91;106509;1277;137428;-81
2022/07/20 10:03:53;;;;;;;7.60;3.40;;;;;;;32.53;30.37;98869.41;106370;1277;22605;-80
2022/07/20 10:06:21;;;;;;;12.70;4.00;;;;;;;32.66;31.10;98872.17;106158;1277;137906;-81
2022/07/20 10:08:49;;;;;;;8.60;3.20;;;;;;;32.80;31.18;98871.14;106487;1276;22712;-81
2022/07/20 10:11:16;;;;;;;;;;;;;;;32.89;30.61;98866.65;106126;1277;24322;-81
2022/07/20 10:13:44;;;;;;;5.90;3.30;;;;;;;32.92;29.96;98862.91;106314;1277;123731;-81
2022/07/20 10:16:29;;;;;;;6.90;3.30;;;;;;;32.99;29.48;98860.63;106307;1276;22607;-82
2022/07/20 10:18:57;;;;;;;6.80;3.30;;;;;;;33.06;29.00;98859.51;106044;1276;137326;-81
2022/07/20 10:21:46;;;;;;;7.00;3.50;;;;;;;33.12;29.56;98860.87;106482;1277;23431;-82
2022/07/20 10:24:30;;;;;;;5.20;3.40;;;;;;;33.23;29.58;98853.74;106184;1277;138028;-82
2022/07/20 10:27:12;;;;;;;6.20;3.10;;;;;;;33.34;29.31;98852.97;106187;1277;22570;-83
2022/07/20 10:29:47;;;;;;;8.20;3.60;;;;;;;33.40;29.94;98852.70;106543;1277;22707;-82
2022/07/20 10:32:28;;;;;;;4.90;3.30;;;;;;;33.49;30.28;98853.91;106210;1277;136917;-82
2022/07/20 10:34:57;;;;;;;6.80;3.50;;;;;;;33.55;29.40;98851.63;106248;1277;25277;-83
2022/07/20 10:37:26;;;;;;;10.10;3.30;;;;;;;33.58;29.02;98850.51;106112;1277;137245;-83
2022/07/20 10:40:06;;;;;;;7.50;3.80;;;;;;;33.64;29.32;98852.42;106330;1277;22867;-83
2022/07/20 10:42:48;;;;;;;4.50;3.20;;;;;;;33.73;29.70;98852.37;106613;1277;138312;-83
2022/07/20 10:45:19;;;;;;;5.70;3.80;;;;;;;33.73;27.98;98853.34;106170;1277;22691;-85
2022/07/20 10:47:47;;;;;;;11.80;3.80;;;;;;;33.58;27.05;98846.16;106173;1277;24371;-81
2022/07/20 10:50:17;;;;;;;;;;;;;;;33.51;27.37;98844.88;105878;1277;137945;-81
2022/07/20 10:52:48;;;;;;;4.10;3.30;;;;;;;33.46;28.94;98845.09;106067;1277;24503;-81
2022/07/20 10:55:34;;;;;;;5.90;3.50;;;;;;;33.55;28.93;98851.21;106175;1278;137418;-82
2022/07/20 10:58:07;;;;;;;6.90;3.40;;;;;;;33.64;28.87;98848.47;106028;1277;22569;-82
2022/07/20 11:00:43;;;;;;;6.40;3.20;;;;;;;33.73;28.12;98849.05;105996;1278;138105;-83
2022/07/20 11:03:17;;;;;;;9.10;3.60;;;;;;;33.80;27.51;98847.89;106125;1276;22659;-82
2022/07/20 11:05:46;;;;;;;5.40;2.90;;;;;;;33.99;28.26;98841.34;106387;1276;24419;-83
2022/07/20 11:08:16;;;;;;;5.20;3.30;;;;;;;34.17;28.53;98843.95;106508;1276;137647;-82
2022/07/20 11:10:43;;;;;;;5.50;3.20;;;;;;;34.37;27.78;98839.89;106554;1276;25393;-82
2022/07/20 11:13:12;;;;;;;4.90;3.50;;;;;;;34.53;28.20;98837.93;106162;1277;137566;-84
2022/07/20 11:15:39;;;;;;;9.50;3.30;;;;;;;34.63;27.72;98836.69;106766;1277;22836;-82
2022/07/20 11:18:08;;;;;;;8.30;3.90;;;;;;;34.69;27.67;98841.89;106075;1277;137413;-82
2022/07/20 11:20:57;;;;;;;6.90;3.30;;;;;;;34.58;26.63;98836.26;106239;1277;25491;-81
2022/07/20 11:23:38;;;;;;;5.80;3.10;;;;;;;34.54;27.48;98834.78;106560;1277;23030;-82
2022/07/20 11:26:05;;;;;;;7.20;3.50;;;;;;;34.68;27.79;98837.92;106321;1277;137411;-83
2022/07/20 11:28:54;;;;;;;4.00;3.20;;;;;;;34.69;27.78;98839.39;106309;1277;22607;-82
2022/07/20 11:31:24;;;;;;;5.50;3.10;;;;;;;34.65;26.52;98836.38;106179;1277;137111;-86
2022/07/20 11:33:53;;;;;;;10.20;4.00;;;;;;;34.64;25.92;98832.98;106136;1277;22556;-82
2022/07/20 11:36:32;;;;;;;7.10;3.60;;;;;;;34.65;27.00;98833.55;106207;1277;137814;-83
2022/07/20 11:39:02;;;;;;;6.40;3.60;;;;;;;34.82;28.09;98832.73;106237;1277;23614;-83
2022/07/20 11:41:31;;;;;;;6.80;3.60;;;;;;;34.97;27.14;98829.30;106142;1277;22557;-82
2022/07/20 11:43:59;;;;;;;10.10;3.60;;;;;;;35.08;27.03;98827.63;106068;1277;137181;-84
2022/07/20 11:46:42;;;;;;;7.70;3.20;;;;;;;35.22;27.13;98822.65;106464;1277;25379;-81
2022/07/20 11:49:15;;;;;;;6.10;3.20;;;;;;;35.34;26.10;98818.15;106005;1277;138104;-82
2022/07/20 11:51:44;;;;;;;5.30;3.40;;;;;;;35.48;26.34;98812.66;106372;1277;25358;-83